createdAt,value
2023-04-26T00:00:20.886Z,11.99
2023-04-26T00:01:23.083Z,12.00
2023-04-26T00:02:25.970Z,11.98
2023-04-26T00:03:28.288Z,11.97
2023-04-26T00:04:31.364Z,11.98
2023-04-26T00:05:33.789Z,11.96
2023-04-26T00:06:36.772Z,11.97
2023-04-26T00:07:39.116Z,11.96
2023-04-26T00:08:41.862Z,11.96
2023-04-26T00:09:44.057Z,11.94
2023-04-26T00:10:46.665Z,11.94
2023-04-26T00:11:49.028Z,11.93
2023-04-26T00:12:51.185Z,11.93
2023-04-26T00:13:53.315Z,11.94
2023-04-26T00:14:55.524Z,11.90
2023-04-26T00:15:57.824Z,11.91
2023-04-26T00:17:00.274Z,11.88
2023-04-26T00:18:02.988Z,11.86
2023-04-26T00:19:05.116Z,11.88
2023-04-26T00:20:08.676Z,11.89
2023-04-26T00:21:11.003Z,11.87
2023-04-26T00:22:13.292Z,11.85
2023-04-26T00:23:15.472Z,11.87
2023-04-26T00:24:18.200Z,11.88
2023-04-26T00:25:20.538Z,11.82
2023-04-26T00:26:23.923Z,11.82
2023-04-26T00:27:26.124Z,11.80
2023-04-26T00:28:31.515Z,11.79
2023-04-26T00:29:34.077Z,11.79
2023-04-26T00:30:36.479Z,11.77
2023-04-26T00:31:39.356Z,11.74
2023-04-26T00:32:41.877Z,11.75
2023-04-26T00:33:44.236Z,11.72
2023-04-26T00:34:47.063Z,11.69
2023-04-26T00:35:49.519Z,11.68
2023-04-26T00:36:52.268Z,11.65
2023-04-26T00:37:54.440Z,11.67
2023-04-26T00:38:56.706Z,11.65
2023-04-26T00:39:59.371Z,11.63
2023-04-26T00:41:02.264Z,11.62
2023-04-26T00:42:04.426Z,11.61
2023-04-26T00:43:06.705Z,11.61
2023-04-26T00:44:08.867Z,11.59
2023-04-26T00:45:11.289Z,11.56
2023-04-26T00:46:13.937Z,11.55
2023-04-26T00:47:16.776Z,11.53
2023-04-26T00:48:20.521Z,11.53
2023-04-26T00:49:24.511Z,11.48
2023-04-26T00:50:27.455Z,11.45
2023-04-26T00:51:29.813Z,11.44
2023-04-26T00:52:32.135Z,11.41
2023-04-26T00:53:34.734Z,11.43
2023-04-26T00:54:37.631Z,11.41
2023-04-26T00:55:44.117Z,11.40
2023-04-26T00:56:47.578Z,11.38
2023-04-26T00:57:49.914Z,11.36
2023-04-26T00:58:52.264Z,11.36
2023-04-26T00:59:54.738Z,11.35
2023-04-26T01:00:56.994Z,11.34
2023-04-26T01:01:59.275Z,11.33
2023-04-26T01:03:02.425Z,11.32
2023-04-26T01:04:05.237Z,11.29
2023-04-26T01:05:08.393Z,11.30
2023-04-26T01:06:13.148Z,11.30
2023-04-26T01:07:15.695Z,11.27
2023-04-26T01:08:18.428Z,11.24
2023-04-26T01:09:21.193Z,11.20
2023-04-26T01:10:23.756Z,11.21
2023-04-26T01:11:26.447Z,11.21
2023-04-26T01:12:29.204Z,11.17
2023-04-26T01:13:32.452Z,11.13
2023-04-26T01:14:35.294Z,11.10
2023-04-26T01:15:38.330Z,11.08
2023-04-26T01:16:40.991Z,11.02
2023-04-26T01:17:48.102Z,11.02
2023-04-26T01:18:51.767Z,10.98
2023-04-26T01:19:54.413Z,10.95
2023-04-26T01:20:56.691Z,10.89
2023-04-26T01:21:58.980Z,10.86
2023-04-26T01:23:01.237Z,10.82
2023-04-26T01:24:04.590Z,10.75
2023-04-26T01:25:09.037Z,10.74
2023-04-26T01:26:12.973Z,10.69
2023-04-26T01:27:15.544Z,10.68
2023-04-26T01:28:18.018Z,10.69
2023-04-26T01:29:21.892Z,10.67
2023-04-26T01:30:24.296Z,10.63
2023-04-26T01:31:26.725Z,10.63
2023-04-26T01:32:28.853Z,10.62
2023-04-26T01:33:33.205Z,10.63
2023-04-26T01:34:35.470Z,10.59
2023-04-26T01:35:37.790Z,10.59
2023-04-26T01:36:40.484Z,10.53
2023-04-26T01:37:42.744Z,10.51
2023-04-26T01:38:44.938Z,10.49
2023-04-26T01:39:47.113Z,10.47
2023-04-26T01:40:49.390Z,10.44
2023-04-26T01:41:51.574Z,10.47
2023-04-26T01:42:53.826Z,10.41
2023-04-26T01:43:56.180Z,10.41
2023-04-26T01:45:00.921Z,10.40
2023-04-26T01:46:05.216Z,10.38
2023-04-26T01:47:07.544Z,10.34
2023-04-26T01:48:09.650Z,10.33
2023-04-26T01:49:11.935Z,10.31
2023-04-26T01:50:14.722Z,10.26
2023-04-26T01:51:16.871Z,10.21
2023-04-26T01:52:19.501Z,10.22
2023-04-26T01:53:22.984Z,10.17
2023-04-26T01:54:25.428Z,10.17
2023-04-26T01:55:28.480Z,10.15
2023-04-26T01:56:30.735Z,10.14
2023-04-26T01:57:33.620Z,10.15
2023-04-26T01:58:36.001Z,10.14
2023-04-26T01:59:38.999Z,10.15
2023-04-26T02:00:41.387Z,10.15
2023-04-26T02:01:43.916Z,10.15
2023-04-26T02:02:47.384Z,10.15
2023-04-26T02:03:49.916Z,10.17
2023-04-26T02:04:54.114Z,10.18
2023-04-26T02:05:58.276Z,10.18
2023-04-26T02:07:01.797Z,10.20
2023-04-26T02:08:04.113Z,10.21
2023-04-26T02:09:06.994Z,10.23
2023-04-26T02:10:09.883Z,10.22
2023-04-26T02:11:12.040Z,10.24
2023-04-26T02:12:14.859Z,10.26
2023-04-26T02:13:17.058Z,10.28
2023-04-26T02:14:19.235Z,10.31
2023-04-26T02:15:21.556Z,10.32
2023-04-26T02:16:25.042Z,10.31
2023-04-26T02:17:27.362Z,10.34
2023-04-26T02:18:29.611Z,10.33
2023-04-26T02:19:31.893Z,10.37
2023-04-26T02:20:34.233Z,10.38
2023-04-26T02:21:56.943Z,10.39
2023-04-26T02:22:59.397Z,10.40
2023-04-26T02:24:01.644Z,10.41
2023-04-26T02:25:06.110Z,10.41
2023-04-26T02:26:10.018Z,10.43
2023-04-26T02:27:12.355Z,10.43
2023-04-26T02:28:15.421Z,10.42
2023-04-26T02:29:17.650Z,10.42
2023-04-26T02:30:19.959Z,10.44
2023-04-26T02:31:23.090Z,10.45
2023-04-26T02:32:25.603Z,10.44
2023-04-26T02:33:27.868Z,10.44
2023-04-26T02:34:30.652Z,10.45
2023-04-26T02:35:32.858Z,10.41
2023-04-26T02:36:35.315Z,10.40
2023-04-26T02:37:37.641Z,10.38
2023-04-26T02:38:40.276Z,10.36
2023-04-26T02:39:43.533Z,10.36
2023-04-26T02:40:46.093Z,10.36
2023-04-26T02:41:48.954Z,10.37
2023-04-26T02:42:51.265Z,10.38
2023-04-26T02:43:54.061Z,10.36
2023-04-26T02:44:56.388Z,10.37
2023-04-26T02:45:59.002Z,10.39
2023-04-26T02:47:01.584Z,10.38
2023-04-26T02:48:04.486Z,10.40
2023-04-26T02:49:07.366Z,10.41
2023-04-26T02:50:10.615Z,10.41
2023-04-26T02:51:13.220Z,10.41
2023-04-26T02:52:15.538Z,10.46
2023-04-26T02:53:17.675Z,10.49
2023-04-26T02:54:19.751Z,10.52
2023-04-26T02:55:22.994Z,10.54
2023-04-26T02:56:25.653Z,10.53
2023-04-26T02:57:31.115Z,10.56
2023-04-26T02:58:33.406Z,10.57
2023-04-26T02:59:35.583Z,10.60
2023-04-26T03:00:38.090Z,10.63
2023-04-26T03:01:40.319Z,10.66
2023-04-26T03:02:42.809Z,10.68
2023-04-26T03:03:45.418Z,10.68
2023-04-26T03:04:47.904Z,10.71
2023-04-26T03:05:50.213Z,10.73
2023-04-26T03:06:52.968Z,10.76
2023-04-26T03:07:55.627Z,10.79
2023-04-26T03:08:58.353Z,10.82
2023-04-26T03:10:00.865Z,10.83
2023-04-26T03:11:03.265Z,10.88
2023-04-26T03:12:07.660Z,10.93
2023-04-26T03:13:10.548Z,10.92
2023-04-26T03:14:13.426Z,10.98
2023-04-26T03:15:16.140Z,11.04
2023-04-26T03:16:19.789Z,11.06
2023-04-26T03:17:22.140Z,11.07
2023-04-26T03:18:24.337Z,11.11
2023-04-26T03:19:27.442Z,11.14
2023-04-26T03:20:30.465Z,11.16
2023-04-26T03:21:32.859Z,11.18
2023-04-26T03:22:35.145Z,11.17
2023-04-26T03:23:37.672Z,11.19
2023-04-26T03:24:39.803Z,11.20
2023-04-26T03:25:41.971Z,11.21
2023-04-26T03:26:44.345Z,11.22
2023-04-26T03:27:48.230Z,11.25
2023-04-26T03:28:50.730Z,11.27
2023-04-26T03:29:53.060Z,11.30
2023-04-26T03:30:55.454Z,11.28
2023-04-26T03:31:57.866Z,11.26
2023-04-26T03:33:00.175Z,11.30
2023-04-26T03:34:02.855Z,11.31
2023-04-26T03:35:05.557Z,11.30
2023-04-26T03:36:08.807Z,11.32
2023-04-26T03:37:11.298Z,11.32
2023-04-26T03:38:13.948Z,11.26
2023-04-26T03:39:16.344Z,11.32
2023-04-26T03:40:19.300Z,11.30
2023-04-26T03:41:22.246Z,11.32
2023-04-26T03:42:24.404Z,11.35
2023-04-26T03:43:26.584Z,11.34
2023-04-26T03:44:30.947Z,11.37
2023-04-26T03:45:33.387Z,11.34
2023-04-26T03:46:36.166Z,11.32
2023-04-26T03:47:39.211Z,11.34
2023-04-26T03:48:42.103Z,11.29
2023-04-26T03:49:44.323Z,11.27
2023-04-26T03:50:46.687Z,11.25
2023-04-26T03:51:48.959Z,11.27
2023-04-26T03:52:51.606Z,11.31
2023-04-26T03:53:54.233Z,11.30
2023-04-26T03:54:57.258Z,11.27
2023-04-26T03:55:59.316Z,11.34
2023-04-26T03:57:01.582Z,11.32
2023-04-26T03:58:03.972Z,11.33
2023-04-26T03:59:06.277Z,11.33
2023-04-26T04:00:10.727Z,11.33
2023-04-26T04:01:14.839Z,11.33
2023-04-26T04:02:17.129Z,11.36
2023-04-26T04:03:19.629Z,11.38
2023-04-26T04:04:22.311Z,11.36
2023-04-26T04:05:25.211Z,11.36
2023-04-26T04:06:27.675Z,11.40
2023-04-26T04:07:29.937Z,11.39
2023-04-26T04:08:32.198Z,11.42
2023-04-26T04:09:35.341Z,11.43
2023-04-26T04:10:37.996Z,11.42
2023-04-26T04:11:40.305Z,11.43
2023-04-26T04:12:42.608Z,11.43
2023-04-26T04:13:45.195Z,11.45
2023-04-26T04:14:47.482Z,11.43
2023-04-26T04:15:49.888Z,11.46
2023-04-26T04:16:52.268Z,11.48
2023-04-26T04:17:55.109Z,11.45
2023-04-26T04:18:57.521Z,11.45
2023-04-26T04:20:03.781Z,11.49
2023-04-26T04:21:06.033Z,11.46
2023-04-26T04:22:08.864Z,11.48
2023-04-26T04:23:11.635Z,11.49
2023-04-26T04:24:16.394Z,11.50
2023-04-26T04:25:18.823Z,11.48
2023-04-26T04:26:21.155Z,11.50
2023-04-26T04:27:23.695Z,11.50
2023-04-26T04:28:25.984Z,11.52
2023-04-26T04:29:30.536Z,11.56
2023-04-26T04:30:33.109Z,11.55
2023-04-26T04:31:36.171Z,11.56
2023-04-26T04:32:38.764Z,11.56
2023-04-26T04:33:41.945Z,11.60
2023-04-26T04:34:44.384Z,11.61
2023-04-26T04:35:47.063Z,11.61
2023-04-26T04:36:50.669Z,11.64
2023-04-26T04:37:53.120Z,11.67
2023-04-26T04:38:55.416Z,11.67
2023-04-26T04:39:58.701Z,11.64
2023-04-26T04:41:01.132Z,11.66
2023-04-26T04:42:03.408Z,11.71
2023-04-26T04:43:05.657Z,11.70
2023-04-26T04:44:08.551Z,11.72
2023-04-26T04:45:12.348Z,11.69
2023-04-26T04:46:16.444Z,11.71
2023-04-26T04:47:18.792Z,11.70
2023-04-26T04:48:22.303Z,11.72
2023-04-26T04:49:25.258Z,11.72
2023-04-26T04:50:28.325Z,11.73
2023-04-26T04:51:31.825Z,11.75
2023-04-26T04:52:34.161Z,11.75
2023-04-26T04:53:36.293Z,11.73
2023-04-26T04:54:38.580Z,11.79
2023-04-26T04:55:40.936Z,11.77
2023-04-26T04:56:45.618Z,11.77
2023-04-26T04:57:49.465Z,11.74
2023-04-26T04:58:51.874Z,11.81
2023-04-26T04:59:55.028Z,11.78
2023-04-26T05:00:57.531Z,11.82
2023-04-26T05:02:04.582Z,11.83
2023-04-26T05:03:07.142Z,11.85
2023-04-26T05:04:09.827Z,11.87
2023-04-26T05:05:13.071Z,11.90
2023-04-26T05:06:16.477Z,11.90
2023-04-26T05:07:19.685Z,11.95
2023-04-26T05:08:23.816Z,11.93
2023-04-26T05:09:26.272Z,11.94
2023-04-26T05:10:28.627Z,11.96
2023-04-26T05:11:32.085Z,11.97
2023-04-26T05:12:34.696Z,12.00
2023-04-26T05:13:37.414Z,12.01
2023-04-26T05:14:40.963Z,12.02
2023-04-26T05:15:43.246Z,12.06
2023-04-26T05:16:46.159Z,12.03
2023-04-26T05:17:48.959Z,12.05
2023-04-26T05:18:56.267Z,12.03
2023-04-26T05:19:58.521Z,12.08
2023-04-26T05:21:01.589Z,12.05
2023-04-26T05:22:04.273Z,12.09
2023-04-26T05:23:06.893Z,12.12
2023-04-26T05:24:09.605Z,12.08
2023-04-26T05:25:12.088Z,12.09
2023-04-26T05:26:17.130Z,12.11
2023-04-26T05:27:38.401Z,12.11
2023-04-26T05:28:45.127Z,12.13
2023-04-26T05:30:01.158Z,12.12
2023-04-26T05:31:11.261Z,12.15
2023-04-26T05:32:27.934Z,12.17
2023-04-26T05:33:44.639Z,12.16
2023-04-26T05:34:54.933Z,12.17
2023-04-26T05:35:57.218Z,12.20
2023-04-26T05:37:00.784Z,12.16
2023-04-26T05:38:03.188Z,12.11
2023-04-26T05:39:05.360Z,12.10
2023-04-26T05:40:09.082Z,12.08
2023-04-26T05:41:11.432Z,12.09
2023-04-26T05:42:15.217Z,12.09
2023-04-26T05:43:19.595Z,12.06
2023-04-26T05:44:22.009Z,12.07
2023-04-26T05:45:24.717Z,12.03
2023-04-26T05:46:27.322Z,12.02
2023-04-26T05:47:30.559Z,11.99
2023-04-26T05:49:40.439Z,12.09
2023-04-26T05:50:43.710Z,11.98
2023-04-26T05:51:46.349Z,11.96
2023-04-26T05:52:48.541Z,11.93
2023-04-26T05:53:51.003Z,11.91
2023-04-26T05:54:53.668Z,11.90
2023-04-26T05:55:56.201Z,11.89
2023-04-26T05:56:59.319Z,11.89
2023-04-26T05:58:03.027Z,11.90
2023-04-26T05:59:05.212Z,11.92
2023-04-26T06:00:10.050Z,11.93
2023-04-26T06:01:18.809Z,11.94
2023-04-26T06:02:21.105Z,11.98
2023-04-26T06:03:23.980Z,11.98
2023-04-26T06:04:26.728Z,12.00
2023-04-26T06:05:37.696Z,12.03
2023-04-26T06:06:40.598Z,12.06
2023-04-26T06:07:42.990Z,12.10
2023-04-26T06:08:45.938Z,12.09
2023-04-26T06:09:48.852Z,12.11
2023-04-26T06:10:52.343Z,12.13
2023-04-26T06:11:54.965Z,12.13
2023-04-26T06:12:57.383Z,12.15
2023-04-26T06:14:01.522Z,12.15
2023-04-26T06:15:05.047Z,12.16
2023-04-26T06:16:10.173Z,12.18
2023-04-26T06:17:13.089Z,12.17
2023-04-26T06:18:15.693Z,12.12
2023-04-26T06:19:17.926Z,12.14
2023-04-26T06:20:20.918Z,12.13
2023-04-26T06:21:23.992Z,12.14
2023-04-26T06:22:26.916Z,12.11
2023-04-26T06:23:30.351Z,12.10
2023-04-26T06:24:33.030Z,12.08
2023-04-26T06:25:36.475Z,12.06
2023-04-26T06:26:38.807Z,12.07
2023-04-26T06:27:41.986Z,12.04
2023-04-26T06:28:44.468Z,12.03
2023-04-26T06:29:46.746Z,12.06
2023-04-26T06:30:49.267Z,12.08
2023-04-26T06:31:51.690Z,12.08
2023-04-26T06:32:55.180Z,12.10
2023-04-26T06:33:57.458Z,12.15
2023-04-26T06:35:00.716Z,12.18
2023-04-26T06:36:03.967Z,12.21
2023-04-26T06:37:06.401Z,12.25
2023-04-26T06:38:08.790Z,12.25
2023-04-26T06:39:11.435Z,12.27
2023-04-26T06:40:14.973Z,12.30
2023-04-26T06:41:17.996Z,12.30
2023-04-26T06:42:22.152Z,12.32
2023-04-26T06:44:35.120Z,12.45
2023-04-26T06:45:39.653Z,12.31
2023-04-26T06:46:43.631Z,12.32
2023-04-26T06:47:46.276Z,12.32
2023-04-26T06:48:48.682Z,12.33
2023-04-26T06:49:51.458Z,12.32
2023-04-26T06:50:54.167Z,12.31
2023-04-26T06:51:56.401Z,12.31
2023-04-26T06:52:58.658Z,12.27
2023-04-26T06:54:00.823Z,12.27
2023-04-26T06:55:04.144Z,12.25
2023-04-26T06:56:07.546Z,12.24
2023-04-26T06:57:09.720Z,12.25
2023-04-26T06:58:12.090Z,12.21
2023-04-26T06:59:14.609Z,12.22
2023-04-26T07:00:17.182Z,12.20
2023-04-26T07:01:19.388Z,12.20
2023-04-26T07:02:22.065Z,12.21
2023-04-26T07:03:25.065Z,12.20
2023-04-26T07:04:27.790Z,12.22
2023-04-26T07:05:30.391Z,12.21
2023-04-26T07:06:32.762Z,12.20
2023-04-26T07:07:34.921Z,12.19
2023-04-26T07:08:36.973Z,12.20
2023-04-26T07:09:39.155Z,12.20
2023-04-26T07:10:41.808Z,12.22
2023-04-26T07:11:46.067Z,12.23
2023-04-26T07:12:48.307Z,12.26
2023-04-26T07:13:50.707Z,12.29
2023-04-26T07:14:53.051Z,12.30
2023-04-26T07:15:55.316Z,12.34
2023-04-26T07:16:57.641Z,12.34
2023-04-26T07:18:00.302Z,12.33
2023-04-26T07:19:02.562Z,12.34
2023-04-26T07:20:06.176Z,12.35
2023-04-26T07:21:08.616Z,12.36
2023-04-26T07:22:11.201Z,12.35
2023-04-26T07:23:13.365Z,12.37
2023-04-26T07:24:15.657Z,12.39
2023-04-26T07:25:18.925Z,12.42
2023-04-26T07:26:25.829Z,12.44
2023-04-26T07:27:28.053Z,12.46
2023-04-26T07:28:30.845Z,12.49
2023-04-26T07:29:33.133Z,12.49
2023-04-26T07:30:35.555Z,12.52
2023-04-26T07:31:38.094Z,12.54
2023-04-26T07:32:40.210Z,12.55
2023-04-26T07:33:42.995Z,12.59
2023-04-26T07:34:45.131Z,12.61
2023-04-26T07:35:56.196Z,12.65
2023-04-26T07:36:58.561Z,12.68
2023-04-26T07:38:01.036Z,12.73
2023-04-26T07:39:03.505Z,12.74
2023-04-26T07:40:07.210Z,12.77
2023-04-26T07:41:09.675Z,12.81
2023-04-26T07:42:11.896Z,12.88
2023-04-26T07:43:14.188Z,12.95
2023-04-26T07:44:17.102Z,13.01
2023-04-26T07:45:19.869Z,13.07
2023-04-26T07:46:22.074Z,13.13
2023-04-26T07:47:24.337Z,13.19
2023-04-26T07:48:27.061Z,13.24
2023-04-26T07:49:29.156Z,13.26
2023-04-26T07:50:31.460Z,13.26
2023-04-26T07:51:35.808Z,13.26
2023-04-26T07:52:38.255Z,13.28
2023-04-26T07:53:41.063Z,13.27
2023-04-26T07:54:45.538Z,13.27
2023-04-26T07:55:47.861Z,13.28
2023-04-26T07:56:50.619Z,13.30
2023-04-26T07:57:52.799Z,13.31
2023-04-26T07:58:55.021Z,13.32
2023-04-26T07:59:58.368Z,13.33
2023-04-26T08:01:01.647Z,13.36
2023-04-26T08:02:04.546Z,13.39
2023-04-26T08:03:06.936Z,13.42
2023-04-26T08:04:09.543Z,13.44
2023-04-26T08:05:13.960Z,13.49
2023-04-26T08:06:16.778Z,13.51
2023-04-26T08:07:19.469Z,13.55
2023-04-26T08:08:22.672Z,13.59
2023-04-26T08:09:25.559Z,13.61
2023-04-26T08:10:27.888Z,13.63
2023-04-26T08:11:30.131Z,13.66
2023-04-26T08:12:34.041Z,13.70
2023-04-26T08:13:36.475Z,13.73
2023-04-26T08:14:38.740Z,13.77
2023-04-26T08:15:41.329Z,13.80
2023-04-26T08:16:44.051Z,13.82
2023-04-26T08:17:46.432Z,13.82
2023-04-26T08:18:48.681Z,13.86
2023-04-26T08:19:51.174Z,13.87
2023-04-26T08:20:53.653Z,13.89
2023-04-26T08:21:56.019Z,13.91
2023-04-26T08:22:59.228Z,13.89
2023-04-26T08:24:02.110Z,13.87
2023-04-26T08:25:05.470Z,13.84
2023-04-26T08:26:08.962Z,13.83
2023-04-26T08:27:13.150Z,13.85
2023-04-26T08:28:15.768Z,13.87
2023-04-26T08:29:19.038Z,13.92
2023-04-26T08:30:21.864Z,13.98
2023-04-26T08:31:25.146Z,14.06
2023-04-26T08:32:27.751Z,14.12
2023-04-26T08:33:29.975Z,14.20
2023-04-26T08:34:32.187Z,14.26
2023-04-26T08:35:34.505Z,14.30
2023-04-26T08:36:37.775Z,14.35
2023-04-26T08:37:39.976Z,14.39
2023-04-26T08:38:42.806Z,14.44
2023-04-26T08:39:44.937Z,14.47
2023-04-26T08:40:47.105Z,14.51
2023-04-26T08:41:58.688Z,14.55
2023-04-26T08:43:01.018Z,14.62
2023-04-26T08:44:07.707Z,14.66
2023-04-26T08:45:10.520Z,14.66
2023-04-26T08:46:16.883Z,14.67
2023-04-26T08:47:22.700Z,14.68
2023-04-26T08:48:27.408Z,14.65
2023-04-26T08:49:39.273Z,14.62
2023-04-26T08:50:44.005Z,14.61
2023-04-26T08:51:47.798Z,14.61
2023-04-26T08:52:51.832Z,14.62
2023-04-26T08:53:57.411Z,14.60
2023-04-26T08:55:01.131Z,14.55
2023-04-26T08:56:06.310Z,14.55
2023-04-26T08:57:09.317Z,14.53
2023-04-26T08:58:11.659Z,14.52
2023-04-26T08:59:15.184Z,14.53
2023-04-26T09:00:18.778Z,14.57
2023-04-26T09:01:23.406Z,14.63
2023-04-26T09:02:26.829Z,14.68
2023-04-26T09:03:30.691Z,14.72
2023-04-26T09:04:33.226Z,14.79
2023-04-26T09:05:35.700Z,14.82
2023-04-26T09:06:38.515Z,14.85
2023-04-26T09:08:56.568Z,15.00
2023-04-26T09:09:59.541Z,14.93
2023-04-26T09:11:03.090Z,14.90
2023-04-26T09:12:05.626Z,14.94
2023-04-26T09:13:09.696Z,14.96
2023-04-26T09:14:12.020Z,14.99
2023-04-26T09:15:15.531Z,15.00
2023-04-26T09:16:18.466Z,15.01
2023-04-26T09:17:35.222Z,15.01
2023-04-26T09:18:51.590Z,15.01
2023-04-26T09:19:54.496Z,15.01
2023-04-26T09:21:04.851Z,15.02
2023-04-26T09:22:06.983Z,15.01
2023-04-26T09:23:09.926Z,15.02
2023-04-26T09:24:14.153Z,15.01
2023-04-26T09:25:18.358Z,15.00
2023-04-26T09:26:21.271Z,14.99
2023-04-26T09:27:32.364Z,15.00
2023-04-26T09:28:35.234Z,15.02
2023-04-26T09:29:37.413Z,15.03
2023-04-26T09:30:39.597Z,15.02
2023-04-26T09:31:49.582Z,15.01
2023-04-26T09:32:59.936Z,15.00
2023-04-26T09:34:02.231Z,15.00
2023-04-26T09:35:05.265Z,15.02
2023-04-26T09:36:12.009Z,15.01
2023-04-26T09:37:14.299Z,15.04
2023-04-26T09:38:18.249Z,15.04
2023-04-26T09:40:50.355Z,15.17
2023-04-26T09:41:52.791Z,15.04
2023-04-26T09:43:06.963Z,15.01
2023-04-26T09:44:23.744Z,15.02
2023-04-26T09:45:27.161Z,15.03
2023-04-26T09:46:29.430Z,15.00
2023-04-26T09:47:31.684Z,14.99
2023-04-26T09:48:34.569Z,14.94
2023-04-26T09:49:50.400Z,14.94
2023-04-26T09:50:54.490Z,14.92
2023-04-26T09:52:06.643Z,14.90
2023-04-26T09:53:08.956Z,14.83
2023-04-26T09:54:12.109Z,14.79
2023-04-26T09:55:31.140Z,14.77
2023-04-26T09:56:22.145Z,14.72
2023-04-26T09:57:24.477Z,14.69
2023-04-26T09:58:26.818Z,14.65
2023-04-26T10:00:54.951Z,14.68
2023-04-26T10:01:57.326Z,14.54
2023-04-26T10:02:59.580Z,14.50
2023-04-26T10:04:02.138Z,14.48
2023-04-26T10:05:07.679Z,14.48
2023-04-26T10:06:11.573Z,14.45
2023-04-26T10:07:15.743Z,14.46
2023-04-26T10:08:18.344Z,14.43
2023-04-26T10:09:21.466Z,14.41
2023-04-26T10:10:23.719Z,14.41
2023-04-26T10:11:26.891Z,14.40
2023-04-26T10:12:29.344Z,14.40
2023-04-26T10:13:31.937Z,14.40
2023-04-26T10:14:34.973Z,14.38
2023-04-26T10:15:38.959Z,14.37
2023-04-26T10:16:43.243Z,14.34
2023-04-26T10:17:45.742Z,14.31
2023-04-26T10:18:48.513Z,14.32
2023-04-26T10:19:54.657Z,14.31
2023-04-26T10:21:03.856Z,14.32
2023-04-26T10:22:15.572Z,14.30
2023-04-26T10:23:22.838Z,14.30
2023-04-26T10:24:26.536Z,14.31
2023-04-26T10:25:40.324Z,14.31
2023-04-26T10:26:50.610Z,14.32
2023-04-26T10:27:52.949Z,14.32
2023-04-26T10:29:00.819Z,14.31
2023-04-26T10:30:03.674Z,14.30
2023-04-26T10:31:06.012Z,14.30
2023-04-26T10:32:09.433Z,14.30
2023-04-26T10:33:12.576Z,14.31
2023-04-26T10:34:19.480Z,14.32
2023-04-26T10:35:26.064Z,14.34
2023-04-26T10:36:28.971Z,14.36
2023-04-26T10:37:31.402Z,14.41
2023-04-26T10:38:35.571Z,14.43
2023-04-26T10:39:42.813Z,14.46
2023-04-26T10:40:45.230Z,14.48
2023-04-26T10:41:47.903Z,14.50
2023-04-26T10:42:50.155Z,14.52
2023-04-26T10:43:52.873Z,14.54
2023-04-26T10:47:47.679Z,14.67
2023-04-26T10:48:50.989Z,14.58
2023-04-26T10:50:09.241Z,14.60
2023-04-26T10:51:12.270Z,14.63
2023-04-26T10:52:16.277Z,14.67
2023-04-26T10:53:19.018Z,14.66
2023-04-26T10:54:22.067Z,14.67
2023-04-26T10:55:41.245Z,14.70
2023-04-26T10:56:50.116Z,14.70
2023-04-26T10:57:53.503Z,14.70
2023-04-26T11:00:20.598Z,14.72
2023-04-26T11:01:25.010Z,14.73
2023-04-26T11:02:52.649Z,14.76
2023-04-26T11:04:01.314Z,14.80
2023-04-26T11:05:04.182Z,14.82
2023-04-26T11:06:11.534Z,14.86
2023-04-26T11:07:13.905Z,14.90
2023-04-26T11:08:20.976Z,14.89
2023-04-26T11:09:38.332Z,14.91
2023-04-26T11:10:41.384Z,14.93
2023-04-26T11:11:52.675Z,14.94
2023-04-26T11:13:02.794Z,14.94
2023-04-26T11:14:05.626Z,14.94
2023-04-26T11:15:09.235Z,14.95
2023-04-26T11:16:14.566Z,14.94
2023-04-26T11:17:17.401Z,14.95
2023-04-26T11:18:20.910Z,14.96
2023-04-26T11:19:23.583Z,14.97
2023-04-26T11:20:30.847Z,15.00
2023-04-26T11:21:33.173Z,15.01
2023-04-26T11:22:39.943Z,15.03
2023-04-26T11:23:42.901Z,15.06
2023-04-26T11:24:46.388Z,15.07
2023-04-26T11:25:48.802Z,15.06
2023-04-26T11:26:51.460Z,15.07
2023-04-26T11:29:09.276Z,15.15
2023-04-26T11:30:12.557Z,15.04
2023-04-26T11:31:15.868Z,15.06
2023-04-26T11:32:19.672Z,15.08
2023-04-26T11:33:22.742Z,15.10
2023-04-26T11:34:35.409Z,15.10
2023-04-26T11:35:38.948Z,15.11
2023-04-26T11:36:41.861Z,15.14
2023-04-26T11:37:45.302Z,15.15
2023-04-26T11:38:48.078Z,15.16
2023-04-26T11:39:50.281Z,15.19
2023-04-26T11:41:01.919Z,15.19
2023-04-26T11:42:09.061Z,15.20
2023-04-26T11:43:11.912Z,15.20
2023-04-26T11:44:19.537Z,15.20
2023-04-26T11:45:21.830Z,15.20
2023-04-26T11:46:25.014Z,15.21
2023-04-26T11:47:27.894Z,15.21
2023-04-26T11:48:31.224Z,15.22
2023-04-26T11:49:36.349Z,15.20
2023-04-26T11:50:40.481Z,15.21
2023-04-26T11:51:43.300Z,15.18
2023-04-26T11:52:45.730Z,15.18
2023-04-26T11:53:50.287Z,15.17
2023-04-26T11:55:01.715Z,15.17
2023-04-26T11:57:30.252Z,15.20
2023-04-26T11:58:32.629Z,15.04
2023-04-26T11:59:35.509Z,15.06
2023-04-26T12:00:39.693Z,15.05
2023-04-26T12:01:46.474Z,15.04
2023-04-26T12:02:49.288Z,15.06
2023-04-26T12:05:06.986Z,15.18
2023-04-26T12:06:11.287Z,15.09
2023-04-26T12:07:18.000Z,15.12
2023-04-26T12:08:25.363Z,15.15
2023-04-26T12:09:27.871Z,15.16
2023-04-26T12:10:38.176Z,15.19
2023-04-26T12:11:40.715Z,15.20
2023-04-26T12:12:53.458Z,15.25
2023-04-26T12:13:58.771Z,15.26
2023-04-26T12:15:00.905Z,15.29
2023-04-26T12:17:14.422Z,15.32
2023-04-26T12:18:17.962Z,15.32
2023-04-26T12:19:24.809Z,15.34
2023-04-26T12:21:42.812Z,15.44
2023-04-26T12:23:05.114Z,15.33
2023-04-26T12:24:07.572Z,15.35
2023-04-26T12:25:10.014Z,15.36
2023-04-26T12:26:13.114Z,15.38
2023-04-26T12:27:21.812Z,15.40
2023-04-26T12:28:26.002Z,15.43
2023-04-26T12:29:28.244Z,15.44
2023-04-26T12:30:30.836Z,15.47
2023-04-26T12:31:38.964Z,15.47
2023-04-26T12:32:41.229Z,15.47
2023-04-26T12:33:44.179Z,15.46
2023-04-26T12:34:47.248Z,15.47
2023-04-26T12:35:50.284Z,15.46
2023-04-26T12:36:53.793Z,15.45
2023-04-26T12:37:56.784Z,15.44
2023-04-26T12:38:59.620Z,15.43
2023-04-26T12:40:02.795Z,15.44
2023-04-26T12:41:05.088Z,15.45
2023-04-26T12:42:07.732Z,15.44
2023-04-26T12:43:11.769Z,15.45
2023-04-26T12:44:14.095Z,15.45
2023-04-26T12:45:17.157Z,15.45
2023-04-26T12:46:19.450Z,15.46
2023-04-26T12:47:21.715Z,15.47
2023-04-26T12:48:24.042Z,15.48
2023-04-26T12:49:26.355Z,15.48
2023-04-26T12:50:28.744Z,15.46
2023-04-26T12:51:31.508Z,15.43
2023-04-26T12:52:33.855Z,15.43
2023-04-26T12:53:36.135Z,15.43
2023-04-26T12:54:38.141Z,15.40
2023-04-26T12:55:40.817Z,15.39
2023-04-26T12:56:43.086Z,15.37
2023-04-26T12:57:46.680Z,15.34
2023-04-26T12:58:49.365Z,15.32
2023-04-26T12:59:51.715Z,15.29
2023-04-26T13:00:54.587Z,15.28
2023-04-26T13:01:56.810Z,15.26
2023-04-26T13:02:59.248Z,15.24
2023-04-26T13:04:02.196Z,15.21
2023-04-26T13:05:05.005Z,15.19
2023-04-26T13:06:09.252Z,15.14
2023-04-26T13:07:11.574Z,15.12
2023-04-26T13:08:14.844Z,15.09
2023-04-26T13:09:17.412Z,15.04
2023-04-26T13:10:19.681Z,15.05
2023-04-26T13:11:22.008Z,15.03
2023-04-26T13:12:24.183Z,15.02
2023-04-26T13:13:35.909Z,15.02
2023-04-26T13:14:31.028Z,14.99
2023-04-26T13:15:33.701Z,14.95
2023-04-26T13:16:37.213Z,14.93
2023-04-26T13:17:39.783Z,14.93
2023-04-26T13:18:41.937Z,14.91
2023-04-26T13:19:45.198Z,14.84
2023-04-26T13:20:47.916Z,14.83
2023-04-26T13:21:56.800Z,14.77
2023-04-26T13:22:55.596Z,14.73
2023-04-26T13:23:58.263Z,14.71
2023-04-26T13:25:00.542Z,14.69
2023-04-26T13:26:03.061Z,14.65
2023-04-26T13:27:05.422Z,14.63
2023-04-26T13:28:07.598Z,14.61
2023-04-26T13:29:10.198Z,14.56
2023-04-26T13:30:13.733Z,14.54
2023-04-26T13:31:16.133Z,14.52
2023-04-26T13:33:33.094Z,14.57
2023-04-26T13:34:35.394Z,14.42
2023-04-26T13:35:37.691Z,14.41
2023-04-26T13:36:40.074Z,14.41
2023-04-26T13:37:42.246Z,14.37
2023-04-26T13:38:44.410Z,14.36
2023-04-26T13:39:47.304Z,14.34
2023-04-26T13:40:50.188Z,14.35
2023-04-26T13:41:56.400Z,14.33
2023-04-26T13:42:59.118Z,14.33
2023-04-26T13:44:05.029Z,14.30
2023-04-26T13:45:08.052Z,14.24
2023-04-26T13:46:11.276Z,14.23
2023-04-26T13:47:13.545Z,14.20
2023-04-26T13:48:16.448Z,14.18
2023-04-26T13:49:19.260Z,14.15
2023-04-26T13:50:22.247Z,14.13
2023-04-26T13:51:25.114Z,14.11
2023-04-26T13:52:27.584Z,14.04
2023-04-26T13:53:29.948Z,14.02
2023-04-26T13:54:32.146Z,14.02
2023-04-26T13:55:34.326Z,13.98
2023-04-26T13:56:37.512Z,13.96